createdAt,value
2023-05-09T05:01:10.123Z,100164.09
2023-05-09T05:03:37.269Z,100154.09
2023-05-09T05:06:06.574Z,100148.31
2023-05-09T05:08:35.658Z,100154.97
2023-05-09T05:11:02.494Z,100161.69
2023-05-09T05:13:30.282Z,100155.09
2023-05-09T05:16:08.299Z,100148.56
2023-05-09T05:18:44.266Z,100153.38
2023-05-09T05:21:11.248Z,100150.44
2023-05-09T05:23:44.826Z,100154.63
2023-05-09T05:26:21.718Z,100156.88
2023-05-09T05:29:00.642Z,100150.34
2023-05-09T05:31:32.292Z,100143.97
2023-05-09T05:33:59.866Z,100136.56
2023-05-09T05:36:33.799Z,100133.47
2023-05-09T05:39:13.866Z,100130.38
2023-05-09T05:42:14.907Z,100116.50
2023-05-09T05:44:45.794Z,100110.72
2023-05-09T05:47:20.984Z,100106.47
2023-05-09T05:49:59.837Z,100113.91
2023-05-09T05:52:37.013Z,100113.63
2023-05-09T05:55:11.681Z,100121.81
2023-05-09T05:57:53.687Z,100109.53
2023-05-09T06:00:31.177Z,100107.78
2023-05-09T06:03:17.178Z,100103.50
2023-05-09T06:05:52.641Z,100092.41
2023-05-09T06:08:23.306Z,100096.28
2023-05-09T06:10:53.419Z,100096.91
2023-05-09T06:13:26.193Z,100100.97
2023-05-09T06:16:07.836Z,100099.31
2023-05-09T06:18:46.171Z,100097.16
2023-05-09T06:21:16.407Z,100098.00
2023-05-09T06:26:33.001Z,100092.41
2023-05-09T06:29:09.264Z,100089.63
2023-05-09T06:31:38.823Z,100082.22
2023-05-09T06:34:11.776Z,100080.41
2023-05-09T06:36:38.557Z,100076.56
2023-05-09T06:39:09.256Z,100076.56
2023-05-09T06:41:35.979Z,100070.41
2023-05-09T06:44:03.264Z,100064.47
2023-05-09T06:46:29.974Z,100060.94
2023-05-09T06:48:57.267Z,100058.00
2023-05-09T06:51:23.865Z,100049.84
2023-05-09T06:53:51.332Z,100048.66
2023-05-09T06:56:20.149Z,100042.75
2023-05-09T06:58:47.622Z,100040.06
2023-05-09T07:01:14.291Z,100043.44
2023-05-09T07:03:42.824Z,100043.06
2023-05-09T07:06:09.704Z,100035.28
2023-05-09T07:08:36.929Z,100025.06
2023-05-09T07:11:03.618Z,100019.56
2023-05-09T07:13:30.793Z,100021.13
2023-05-09T07:15:57.718Z,100019.47
2023-05-09T07:18:24.858Z,100014.59
2023-05-09T07:20:51.604Z,100010.41
2023-05-09T07:23:18.900Z,100015.25
2023-05-09T07:25:45.569Z,100009.81
2023-05-09T07:28:13.069Z,100017.56
2023-05-09T07:30:39.661Z,100009.22
2023-05-09T07:33:08.081Z,99999.50
2023-05-09T07:35:34.814Z,99997.16
2023-05-09T07:38:02.185Z,99991.75
2023-05-09T07:40:28.772Z,99987.91
2023-05-09T07:42:57.085Z,99988.34
2023-05-09T07:45:24.013Z,99985.13
2023-05-09T07:47:51.475Z,99975.06
2023-05-09T07:50:18.303Z,99974.03
2023-05-09T07:52:45.715Z,99970.38
2023-05-09T07:55:12.448Z,99972.00
2023-05-09T07:57:40.278Z,99980.94
2023-05-09T08:00:08.790Z,99967.06
2023-05-09T08:02:40.375Z,99978.88
2023-05-09T08:05:08.050Z,99959.34
2023-05-09T08:07:35.994Z,99960.81
2023-05-09T08:10:03.129Z,99962.06
2023-05-09T08:12:30.391Z,99959.88
2023-05-09T08:14:57.012Z,99959.72
2023-05-09T08:17:24.198Z,99954.44
2023-05-09T08:19:50.774Z,99945.97
2023-05-09T08:22:22.383Z,99940.66
2023-05-09T08:24:49.378Z,99941.25
2023-05-09T08:27:19.003Z,99938.22
2023-05-09T08:29:45.739Z,99927.44
2023-05-09T08:32:17.128Z,99919.41
2023-05-09T08:34:46.271Z,99936.59
2023-05-09T08:37:15.245Z,99932.06
2023-05-09T08:43:13.054Z,99922.47
2023-05-09T08:46:12.539Z,99915.03
2023-05-09T08:48:51.694Z,99916.53
2023-05-09T08:51:21.669Z,99916.00
2023-05-09T08:53:56.371Z,99913.94
2023-05-09T08:56:26.675Z,99910.97
2023-05-09T08:58:58.463Z,99915.53
2023-05-09T09:01:26.928Z,99915.03
2023-05-09T09:03:54.480Z,99906.81
2023-05-09T09:06:23.655Z,99901.78
2023-05-09T09:08:50.926Z,99891.63
2023-05-09T09:11:18.921Z,99898.50
2023-05-09T09:13:47.576Z,99899.66
2023-05-09T09:16:20.863Z,99895.97
2023-05-09T09:18:48.175Z,99891.28
2023-05-09T09:21:19.181Z,99882.22
2023-05-09T09:23:48.257Z,99883.94
2023-05-09T09:26:15.590Z,99877.56
2023-05-09T09:28:43.606Z,99885.56
2023-05-09T09:31:30.203Z,99874.00
2023-05-09T09:34:02.136Z,99872.25
2023-05-09T09:36:36.724Z,99859.81
2023-05-09T09:39:05.807Z,99865.22
2023-05-09T09:41:39.487Z,99849.88
2023-05-09T09:44:15.442Z,99848.47
2023-05-09T09:46:53.451Z,99857.56
2023-05-09T09:49:35.140Z,99837.22
2023-05-09T09:52:08.343Z,99840.31
2023-05-09T09:54:35.211Z,99839.44
2023-05-09T09:57:03.079Z,99837.66
2023-05-09T09:59:35.970Z,99825.31
2023-05-09T10:04:56.663Z,99828.25
2023-05-09T10:07:29.406Z,99824.16
2023-05-09T10:10:08.761Z,99816.81
2023-05-09T10:12:47.611Z,99810.03
2023-05-09T10:15:18.986Z,99803.84
2023-05-09T10:21:25.348Z,99802.44
2023-05-09T10:23:58.501Z,99791.31
2023-05-09T10:26:32.812Z,99795.91
2023-05-09T10:29:15.073Z,99790.91
2023-05-09T10:31:48.607Z,99789.47
2023-05-09T10:34:19.536Z,99783.03
2023-05-09T10:36:49.928Z,99776.06
2023-05-09T10:39:28.208Z,99778.91
2023-05-09T10:41:57.692Z,99773.06
2023-05-09T10:44:25.593Z,99769.78
2023-05-09T10:46:57.743Z,99765.66
2023-05-09T10:49:29.640Z,99764.81
2023-05-09T10:51:59.281Z,99766.81
2023-05-09T10:54:35.759Z,99748.13
2023-05-09T10:57:06.003Z,99748.25
2023-05-09T10:59:38.646Z,99743.97
2023-05-09T11:02:06.611Z,99743.69
2023-05-09T11:04:33.374Z,99739.69
2023-05-09T11:07:01.209Z,99723.44
2023-05-09T11:09:37.917Z,99729.28
2023-05-09T11:12:12.113Z,99719.72
2023-05-09T11:14:46.731Z,99715.59
2023-05-09T11:17:28.925Z,99720.16
2023-05-09T11:20:00.903Z,99712.31
2023-05-09T11:22:33.146Z,99711.16
2023-05-09T11:25:07.363Z,99705.03
2023-05-09T11:27:43.573Z,99699.31
2023-05-09T11:30:20.883Z,99702.31
2023-05-09T11:32:59.163Z,99706.31
2023-05-09T11:35:28.601Z,99694.28
2023-05-09T11:38:04.540Z,99700.56
2023-05-09T11:40:32.440Z,99688.16
2023-05-09T11:43:01.296Z,99685.16
2023-05-09T11:45:32.346Z,99688.03
2023-05-09T11:48:01.520Z,99686.50
2023-05-09T11:50:28.556Z,99681.88
2023-05-09T11:52:55.774Z,99677.56
2023-05-09T11:55:22.800Z,99666.44
2023-05-09T11:57:54.865Z,99665.50
2023-05-09T12:00:23.910Z,99656.56
2023-05-09T12:02:51.502Z,99657.47
2023-05-09T12:05:20.220Z,99654.34
2023-05-09T12:07:48.130Z,99655.16
2023-05-09T12:10:25.429Z,99649.44
2023-05-09T12:12:55.866Z,99634.41
2023-05-09T12:15:23.219Z,99644.38
2023-05-09T12:18:05.102Z,99629.72
2023-05-09T12:20:47.220Z,99629.09
2023-05-09T12:23:15.227Z,99620.09
2023-05-09T12:26:07.080Z,99621.34
2023-05-09T12:28:47.557Z,99618.56
2023-05-09T12:31:15.228Z,99616.31
2023-05-09T12:33:43.318Z,99608.72
2023-05-09T12:36:12.657Z,99599.88
2023-05-09T12:38:42.940Z,99596.44
2023-05-09T12:41:22.310Z,99596.47
2023-05-09T12:43:59.330Z,99595.25
2023-05-09T12:46:26.174Z,99586.47
2023-05-09T12:48:55.728Z,99581.38
2023-05-09T12:51:23.579Z,99586.72
2023-05-09T12:53:51.363Z,99588.72
2023-05-09T12:56:20.430Z,99573.59
2023-05-09T12:58:52.645Z,99582.66
2023-05-09T13:01:21.369Z,99574.94
2023-05-09T13:04:06.242Z,99577.84
2023-05-09T13:06:34.743Z,99572.88
2023-05-09T13:09:06.061Z,99563.88
2023-05-09T13:11:33.252Z,99562.81
2023-05-09T13:14:00.908Z,99568.50
2023-05-09T13:16:27.670Z,99557.06
2023-05-09T13:18:54.984Z,99558.78
2023-05-09T13:21:21.812Z,99562.63
2023-05-09T13:23:50.397Z,99541.94
2023-05-09T13:26:17.253Z,99539.34
2023-05-09T13:28:44.565Z,99539.03
2023-05-09T13:31:11.461Z,99526.13
2023-05-09T13:33:39.064Z,99518.38
2023-05-09T13:36:06.645Z,99515.06
2023-05-09T13:38:37.637Z,99515.06
2023-05-09T13:41:04.793Z,99503.03
2023-05-09T13:43:32.269Z,99509.94
2023-05-09T13:45:58.952Z,99507.13
2023-05-09T13:48:27.019Z,99508.41
2023-05-09T13:50:54.057Z,99498.47
2023-05-09T13:53:21.135Z,99490.63
2023-05-09T13:55:48.485Z,99485.66
2023-05-09T13:58:16.016Z,99489.94
2023-05-09T14:00:43.029Z,99482.97
2023-05-09T14:03:10.460Z,99492.84
2023-05-09T14:05:37.352Z,99483.47
2023-05-09T14:08:06.620Z,99496.84
2023-05-09T14:10:33.216Z,99486.13
2023-05-09T14:13:00.439Z,99482.16
2023-05-09T14:15:27.414Z,99479.53
2023-05-09T14:17:54.889Z,99474.94
2023-05-09T14:20:34.740Z,99468.84
2023-05-09T14:23:02.402Z,99468.00
2023-05-09T14:25:29.451Z,99455.84
2023-05-09T14:27:56.608Z,99462.44
2023-05-09T14:30:25.079Z,99455.13
2023-05-09T14:32:52.576Z,99456.56
2023-05-09T14:35:19.289Z,99458.09
2023-05-09T14:37:48.549Z,99450.66
2023-05-09T14:40:16.161Z,99449.41
2023-05-09T14:42:44.600Z,99449.09
2023-05-09T14:45:12.764Z,99446.97
2023-05-09T14:47:42.714Z,99439.03
2023-05-09T14:50:15.926Z,99440.56
2023-05-09T14:52:45.594Z,99435.84
2023-05-09T14:55:12.857Z,99437.00
2023-05-09T14:57:41.785Z,99424.59
2023-05-09T15:00:20.218Z,99428.78
2023-05-09T15:03:00.418Z,99425.00
2023-05-09T15:05:28.174Z,99435.34
2023-05-09T15:07:55.754Z,99433.50
2023-05-09T15:10:22.906Z,99419.88
2023-05-09T15:12:50.328Z,99416.28
2023-05-09T15:15:19.569Z,99422.97
2023-05-09T15:17:47.313Z,99425.88
2023-05-09T15:20:18.267Z,99421.63
2023-05-09T15:22:48.191Z,99425.34
2023-05-09T15:25:15.071Z,99415.63
2023-05-09T15:27:43.225Z,99411.25
2023-05-09T15:30:15.763Z,99401.34
2023-05-09T15:32:43.449Z,99400.22
2023-05-09T15:35:10.682Z,99400.81
2023-05-09T15:37:38.865Z,99399.81
2023-05-09T15:40:07.061Z,99395.78
2023-05-09T15:42:48.798Z,99395.34
2023-05-09T15:45:16.685Z,99392.06
2023-05-09T15:47:45.268Z,99388.31
2023-05-09T15:50:13.350Z,99381.88
2023-05-09T15:52:41.094Z,99387.84
2023-05-09T15:55:14.582Z,99382.56
2023-05-09T15:57:43.469Z,99380.59
2023-05-09T16:00:12.694Z,99375.38
2023-05-09T16:02:43.065Z,99373.38
2023-05-09T16:08:18.130Z,99375.38
2023-05-09T16:13:30.975Z,99377.25
2023-05-09T16:15:58.834Z,99371.41
2023-05-09T16:18:26.119Z,99378.56
2023-05-09T16:20:52.840Z,99372.00
2023-05-09T16:23:24.932Z,99368.88
2023-05-09T16:28:33.511Z,99368.91
2023-05-09T16:31:13.398Z,99362.09
2023-05-09T16:36:26.257Z,99358.91
2023-05-09T16:41:39.018Z,99349.81
2023-05-09T16:44:05.690Z,99348.09
2023-05-09T16:46:32.831Z,99340.72
2023-05-09T16:48:59.759Z,99338.25
2023-05-09T16:51:27.648Z,99333.56
2023-05-09T16:56:36.938Z,99328.31
2023-05-09T16:59:04.223Z,99327.16
2023-05-09T17:01:31.728Z,99329.28
2023-05-09T17:03:58.465Z,99322.19
2023-05-09T17:06:26.780Z,99320.75
2023-05-09T17:08:53.827Z,99321.88
2023-05-09T17:11:22.360Z,99319.88
2023-05-09T17:13:48.988Z,99327.78
2023-05-09T17:16:16.315Z,99311.28
2023-05-09T17:18:46.383Z,99311.81
2023-05-09T17:21:18.267Z,99316.09
2023-05-09T17:23:46.727Z,99316.66
2023-05-09T17:26:32.321Z,99324.03
2023-05-09T17:29:40.682Z,99323.31
2023-05-09T17:32:57.924Z,99329.16
2023-05-09T17:35:55.765Z,99327.75
2023-05-09T17:38:23.858Z,99318.91
2023-05-09T17:41:30.611Z,99316.06
2023-05-09T17:44:12.438Z,99317.56
2023-05-09T17:47:02.778Z,99320.78
2023-05-09T17:49:41.074Z,99316.06
2023-05-09T17:52:17.113Z,99314.47
2023-05-09T17:55:11.998Z,99321.44
2023-05-09T17:57:43.512Z,99319.31
2023-05-09T18:00:16.615Z,99322.56
2023-05-09T18:02:46.932Z,99322.34
2023-05-09T18:11:04.172Z,99331.69
2023-05-09T18:13:34.785Z,99320.69
2023-05-09T18:16:08.821Z,99316.81
2023-05-09T18:21:42.190Z,99314.91
2023-05-09T18:24:09.392Z,99313.19
2023-05-09T18:26:40.142Z,99314.19
2023-05-09T18:29:09.361Z,99315.41
2023-05-09T18:31:53.232Z,99313.25
2023-05-09T18:34:25.489Z,99309.84
2023-05-09T18:37:03.751Z,99310.22
2023-05-09T18:39:30.942Z,99308.63
2023-05-09T18:41:58.449Z,99315.28
2023-05-09T18:44:28.090Z,99301.19
2023-05-09T18:47:00.592Z,99300.63
2023-05-09T18:49:29.642Z,99300.03
2023-05-09T18:52:09.554Z,99301.16
2023-05-09T18:57:47.062Z,99317.75
2023-05-09T19:00:17.063Z,99320.19
2023-05-09T19:02:47.834Z,99316.78
2023-05-09T19:05:36.056Z,99326.34
2023-05-09T19:08:21.618Z,99327.69
2023-05-09T19:11:05.275Z,99324.78
2023-05-09T19:13:48.947Z,99330.41
2023-05-09T19:17:13.951Z,99318.44
2023-05-09T19:19:41.624Z,99321.59
2023-05-09T19:22:37.312Z,99327.97
2023-05-09T19:25:31.311Z,99332.88
2023-05-09T19:28:01.733Z,99336.53
2023-05-09T19:30:41.492Z,99334.94
2023-05-09T19:33:09.133Z,99341.69
2023-05-09T19:35:37.672Z,99340.09
2023-05-09T19:38:05.567Z,99334.13
2023-05-09T19:40:51.000Z,99336.06
2023-05-09T19:43:40.519Z,99340.84
2023-05-09T19:46:20.851Z,99334.13
2023-05-09T19:49:05.625Z,99338.50
2023-05-09T19:51:45.412Z,99339.25
2023-05-09T19:54:46.512Z,99341.91
2023-05-09T19:57:45.476Z,99331.03
2023-05-09T20:00:27.751Z,99349.97
2023-05-09T20:03:02.155Z,99345.25
2023-05-09T20:05:40.247Z,99338.66
2023-05-09T20:08:35.111Z,99348.69
2023-05-09T20:11:17.425Z,99345.13
2023-05-09T20:14:05.756Z,99347.31
2023-05-09T20:16:32.757Z,99340.34
2023-05-09T20:18:59.357Z,99339.59
2023-05-09T20:21:27.956Z,99342.03
2023-05-09T20:23:54.526Z,99328.59
2023-05-09T20:26:23.879Z,99340.22
2023-05-09T20:28:54.354Z,99337.16
